createdAt,value
2022-11-02T00:00:03.478Z,97800.25
2022-11-02T00:02:07.556Z,97803.03
2022-11-02T00:04:11.265Z,97785.16
2022-11-02T00:06:14.017Z,97785.69
2022-11-02T00:08:16.638Z,97784.28
2022-11-02T00:10:20.376Z,97774.88
2022-11-02T00:12:23.030Z,97771.44
2022-11-02T00:14:25.814Z,97783.88
2022-11-02T00:16:28.382Z,97777.94
2022-11-02T00:18:31.761Z,97784.75
2022-11-02T00:20:36.626Z,97775.84
2022-11-02T00:22:39.582Z,97781.81
2022-11-02T00:24:42.756Z,97772.63
2022-11-02T00:26:45.341Z,97773.94
2022-11-02T00:28:48.117Z,97776.34
2022-11-02T00:30:50.795Z,97757.75
2022-11-02T00:32:53.384Z,97750.72
2022-11-02T00:34:56.006Z,97765.94
2022-11-02T00:36:58.717Z,97767.28
2022-11-02T00:39:01.296Z,97759.72
2022-11-02T00:41:04.103Z,97771.34
2022-11-02T00:43:06.910Z,97765.94
2022-11-02T00:45:09.978Z,97771.63
2022-11-02T00:47:12.597Z,97763.88
2022-11-02T00:49:15.269Z,97765.78
2022-11-02T00:51:17.910Z,97770.31
2022-11-02T00:53:20.543Z,97761.03
2022-11-02T00:55:23.492Z,97763.38
2022-11-02T00:57:26.299Z,97768.25
2022-11-02T00:59:28.894Z,97757.19
2022-11-02T01:01:31.743Z,97766.16
2022-11-02T01:03:34.625Z,97761.63
2022-11-02T01:05:38.085Z,97758.84
2022-11-02T01:07:41.056Z,97758.94
2022-11-02T01:09:43.650Z,97760.75
2022-11-02T01:11:46.254Z,97746.75
2022-11-02T01:13:51.334Z,97742.97
2022-11-02T01:15:53.953Z,97756.50
2022-11-02T01:17:56.705Z,97740.34
2022-11-02T01:19:59.610Z,97747.63
2022-11-02T01:22:02.201Z,97739.44
2022-11-02T01:24:05.195Z,97754.34
2022-11-02T01:26:09.827Z,97747.44
2022-11-02T01:28:12.425Z,97751.13
2022-11-02T01:30:15.097Z,97743.25
2022-11-02T01:32:17.720Z,97742.53
2022-11-02T01:34:21.174Z,97734.50
2022-11-02T01:36:23.961Z,97737.94
2022-11-02T01:38:26.680Z,97738.47
2022-11-02T01:40:37.981Z,97738.16
2022-11-02T01:42:40.659Z,97735.16
2022-11-02T01:44:44.274Z,97728.09
2022-11-02T01:46:47.504Z,97711.09
2022-11-02T01:48:58.843Z,97724.81
2022-11-02T01:51:05.965Z,97704.59
2022-11-02T01:53:09.262Z,97711.41
2022-11-02T01:55:19.496Z,97703.81
2022-11-02T01:57:23.418Z,97709.13
2022-11-02T01:59:33.668Z,97706.63
2022-11-02T02:01:36.467Z,97699.91
2022-11-02T02:03:40.294Z,97721.00
2022-11-02T02:05:47.894Z,97709.13
2022-11-02T02:07:51.704Z,97711.91
2022-11-02T02:09:55.826Z,97711.91
2022-11-02T02:11:58.474Z,97701.41
2022-11-02T02:14:12.271Z,97704.31
2022-11-02T02:16:21.870Z,97693.31
2022-11-02T02:18:41.078Z,97688.94
2022-11-02T02:21:07.011Z,97702.00
2022-11-02T02:23:39.662Z,97718.19
2022-11-02T02:25:53.247Z,97703.38
2022-11-02T02:28:20.903Z,97702.78
2022-11-02T02:30:23.868Z,97704.97
2022-11-02T02:32:39.072Z,97711.53
2022-11-02T02:35:04.423Z,97701.25
2022-11-02T02:37:20.775Z,97700.19
2022-11-02T02:39:43.376Z,97709.06
2022-11-02T02:41:56.735Z,97708.19
2022-11-02T02:44:03.328Z,97691.19
2022-11-02T02:46:11.744Z,97700.09
2022-11-02T02:48:22.177Z,97686.00
2022-11-02T02:50:34.184Z,97690.09
2022-11-02T02:52:38.052Z,97698.97
2022-11-02T02:54:44.318Z,97684.41
2022-11-02T02:56:57.461Z,97688.50
2022-11-02T02:59:22.010Z,97688.72
2022-11-02T03:01:26.389Z,97697.59
2022-11-02T03:03:30.911Z,97689.91
2022-11-02T03:05:37.466Z,97685.94
2022-11-02T03:07:40.129Z,97686.69
2022-11-02T03:09:57.631Z,97677.50
2022-11-02T03:12:30.521Z,97679.47
2022-11-02T03:14:55.896Z,97683.25
2022-11-02T03:17:18.354Z,97677.84
2022-11-02T03:19:28.930Z,97673.34
2022-11-02T03:21:43.788Z,97670.34
2022-11-02T03:23:53.013Z,97667.06
2022-11-02T03:25:58.252Z,97677.06
2022-11-02T03:28:10.433Z,97676.63
2022-11-02T03:30:18.253Z,97667.47
2022-11-02T03:32:27.989Z,97667.16
2022-11-02T03:34:44.058Z,97661.75
2022-11-02T03:36:57.348Z,97672.84
2022-11-02T03:39:07.103Z,97672.84
2022-11-02T03:41:10.622Z,97665.75
2022-11-02T03:43:15.267Z,97663.66
2022-11-02T03:45:27.701Z,97662.06
2022-11-02T03:47:33.319Z,97660.53
2022-11-02T03:49:39.087Z,97672.13
2022-11-02T03:51:45.246Z,97657.47
2022-11-02T03:54:13.759Z,97670.44
2022-11-02T03:56:23.359Z,97654.19
2022-11-02T03:58:26.090Z,97656.16
2022-11-02T04:00:36.163Z,97657.97
2022-11-02T04:02:41.245Z,97660.69
2022-11-02T04:04:51.853Z,97656.69
2022-11-02T04:06:54.997Z,97673.94
2022-11-02T04:08:57.658Z,97658.56
2022-11-02T04:11:18.671Z,97657.91
2022-11-02T04:13:39.453Z,97652.97
2022-11-02T04:15:42.863Z,97657.75
2022-11-02T04:18:11.312Z,97651.75
2022-11-02T04:20:14.017Z,97649.28
2022-11-02T04:22:36.324Z,97645.81
2022-11-02T04:24:57.824Z,97643.63
2022-11-02T04:27:00.395Z,97650.19
2022-11-02T04:29:03.702Z,97662.88
2022-11-02T04:31:06.359Z,97652.28
2022-11-02T04:33:27.589Z,97647.47
2022-11-02T04:35:31.269Z,97647.19
2022-11-02T04:38:00.256Z,97655.34
2022-11-02T04:40:02.901Z,97652.97
2022-11-02T04:42:06.145Z,97637.84
2022-11-02T04:44:10.785Z,97642.59
2022-11-02T04:46:13.367Z,97640.09
2022-11-02T04:48:16.086Z,97650.59
2022-11-02T04:50:18.966Z,97644.09
2022-11-02T04:52:21.600Z,97645.22
2022-11-02T04:54:24.344Z,97637.03
2022-11-02T04:56:28.232Z,97644.31
2022-11-02T04:58:30.906Z,97627.25
2022-11-02T05:00:33.647Z,97629.84
2022-11-02T05:02:36.506Z,97629.06
2022-11-02T05:04:39.242Z,97632.47
2022-11-02T05:06:41.913Z,97626.38
2022-11-02T05:08:44.865Z,97626.88
2022-11-02T05:10:47.461Z,97636.28
2022-11-02T05:12:57.685Z,97625.84
2022-11-02T05:15:00.277Z,97613.56
2022-11-02T05:17:03.210Z,97631.16
2022-11-02T05:19:08.454Z,97607.59
2022-11-02T05:21:13.649Z,97608.41
2022-11-02T05:23:16.227Z,97606.41
2022-11-02T05:25:19.050Z,97610.59
2022-11-02T05:27:21.660Z,97606.78
2022-11-02T05:29:24.249Z,97595.41
2022-11-02T05:31:26.997Z,97594.31
2022-11-02T05:33:31.205Z,97603.69
2022-11-02T05:35:33.790Z,97600.13
2022-11-02T05:37:36.629Z,97619.31
2022-11-02T05:39:39.231Z,97600.00
2022-11-02T05:41:41.897Z,97597.59
2022-11-02T05:43:44.577Z,97596.81
2022-11-02T05:45:53.222Z,97600.72
2022-11-02T05:47:56.964Z,97586.72
2022-11-02T05:49:59.661Z,97583.91
2022-11-02T05:52:02.238Z,97572.34
2022-11-02T05:54:05.074Z,97573.13
2022-11-02T05:56:10.277Z,97572.22
2022-11-02T05:58:12.957Z,97552.94
2022-11-02T06:00:15.877Z,97553.84
2022-11-02T06:02:20.848Z,97560.53
2022-11-02T06:04:26.136Z,97554.25
2022-11-02T06:06:28.764Z,97560.84
2022-11-02T06:08:35.759Z,97560.66
2022-11-02T06:10:38.758Z,97575.56
2022-11-02T06:12:41.304Z,97564.44
2022-11-02T06:14:43.987Z,97559.53
2022-11-02T06:16:46.629Z,97568.53
2022-11-02T06:18:49.301Z,97551.66
2022-11-02T06:20:51.904Z,97556.16
2022-11-02T06:22:54.582Z,97559.03
2022-11-02T06:24:57.325Z,97557.75
2022-11-02T06:27:00.167Z,97555.66
2022-11-02T06:29:03.217Z,97558.25
2022-11-02T06:31:06.293Z,97562.63
2022-11-02T06:33:09.073Z,97558.53
2022-11-02T06:35:12.623Z,97560.25
2022-11-02T06:37:15.349Z,97556.25
2022-11-02T06:39:17.977Z,97557.06
2022-11-02T06:41:20.584Z,97562.44
2022-11-02T06:43:23.960Z,97560.84
2022-11-02T06:45:27.058Z,97551.53
2022-11-02T06:47:32.350Z,97552.34
2022-11-02T06:49:35.011Z,97552.66
2022-11-02T06:51:37.694Z,97553.75
2022-11-02T06:53:40.334Z,97547.94
2022-11-02T06:55:43.093Z,97545.13
2022-11-02T06:57:46.204Z,97540.13
2022-11-02T06:59:53.689Z,97549.03
2022-11-02T07:01:56.869Z,97547.03
2022-11-02T07:03:59.744Z,97544.44
2022-11-02T07:06:03.944Z,97541.84
2022-11-02T07:08:06.717Z,97546.16
2022-11-02T07:10:10.785Z,97547.72
2022-11-02T07:12:13.531Z,97544.56
2022-11-02T07:14:16.132Z,97538.94
2022-11-02T07:16:18.768Z,97538.66
2022-11-02T07:18:22.330Z,97544.22
2022-11-02T07:20:25.135Z,97535.94
2022-11-02T07:22:28.484Z,97544.84
2022-11-02T07:24:31.444Z,97543.53
2022-11-02T07:26:34.197Z,97538.31
2022-11-02T07:28:38.487Z,97542.94
2022-11-02T07:30:41.497Z,97558.63
2022-11-02T07:32:46.005Z,97555.44
2022-11-02T07:34:48.984Z,97546.13
2022-11-02T07:36:51.793Z,97539.72
2022-11-02T07:38:54.357Z,97542.66
2022-11-02T07:40:57.924Z,97539.13
2022-11-02T07:43:02.108Z,97555.31
2022-11-02T07:45:05.271Z,97538.22
2022-11-02T07:47:08.123Z,97547.59
2022-11-02T07:49:11.051Z,97531.72
2022-11-02T07:51:14.448Z,97541.81
2022-11-02T07:53:17.465Z,97539.72
2022-11-02T07:55:23.095Z,97553.72
2022-11-02T07:57:25.901Z,97538.19
2022-11-02T07:59:28.517Z,97554.34
2022-11-02T08:01:31.609Z,97559.75
2022-11-02T08:03:34.257Z,97557.84
2022-11-02T08:05:40.005Z,97564.63
2022-11-02T08:07:43.887Z,97555.53
2022-11-02T08:09:46.518Z,97560.31
2022-11-02T08:11:49.199Z,97562.34
2022-11-02T08:13:51.900Z,97565.94
2022-11-02T08:15:55.321Z,97556.31
2022-11-02T08:18:07.323Z,97555.53
2022-11-02T08:20:10.648Z,97555.53
2022-11-02T08:22:13.722Z,97551.13
2022-11-02T08:24:16.300Z,97550.94
2022-11-02T08:26:19.004Z,97561.72
2022-11-02T08:28:32.276Z,97563.13
2022-11-02T08:30:34.928Z,97550.53
2022-11-02T08:32:37.722Z,97543.03
2022-11-02T08:34:40.404Z,97546.75
2022-11-02T08:36:42.994Z,97549.91
2022-11-02T08:38:45.756Z,97554.84
2022-11-02T08:40:49.591Z,97546.75
2022-11-02T08:43:06.264Z,97557.22
2022-11-02T08:45:09.364Z,97549.44
2022-11-02T08:47:12.177Z,97554.34
2022-11-02T08:49:14.842Z,97558.25
2022-11-02T08:51:17.537Z,97564.31
2022-11-02T08:53:20.154Z,97555.44
2022-11-02T08:55:22.783Z,97543.72
2022-11-02T08:57:25.584Z,97553.13
2022-11-02T08:59:28.215Z,97547.22
2022-11-02T09:01:31.035Z,97557.22
2022-11-02T09:03:33.705Z,97561.44
2022-11-02T09:05:41.289Z,97561.22
2022-11-02T09:07:43.873Z,97555.72
2022-11-02T09:09:46.696Z,97572.53
2022-11-02T09:11:50.750Z,97560.94
2022-11-02T09:13:56.810Z,97552.84
2022-11-02T09:16:00.565Z,97562.34
2022-11-02T09:18:04.331Z,97573.13
2022-11-02T09:20:07.671Z,97570.13
2022-11-02T09:22:10.400Z,97564.44
2022-11-02T09:24:14.723Z,97563.03
2022-11-02T09:26:17.699Z,97571.13
2022-11-02T09:28:20.716Z,97560.31
2022-11-02T09:30:24.965Z,97572.75
2022-11-02T09:32:27.709Z,97573.63
2022-11-02T09:34:30.482Z,97563.34
2022-11-02T09:36:34.380Z,97570.34
2022-11-02T09:38:37.020Z,97569.59
2022-11-02T09:41:22.657Z,97563.63
2022-11-02T09:43:57.280Z,97573.72
2022-11-02T09:46:08.148Z,97571.34
2022-11-02T09:48:19.869Z,97567.03
2022-11-02T09:50:29.776Z,97562.13
2022-11-02T09:52:38.649Z,97566.91
2022-11-02T09:54:49.715Z,97569.59
2022-11-02T09:56:56.742Z,97557.50
2022-11-02T09:59:07.261Z,97557.84
2022-11-02T10:01:23.163Z,97565.53
2022-11-02T10:03:49.374Z,97566.31
2022-11-02T10:06:09.729Z,97568.69
2022-11-02T10:08:24.055Z,97569.69
2022-11-02T10:10:32.401Z,97567.78
2022-11-02T10:13:02.498Z,97576.72
2022-11-02T10:15:20.598Z,97576.00
2022-11-02T10:17:27.594Z,97574.09
2022-11-02T10:19:41.120Z,97558.91
2022-11-02T10:21:47.755Z,97568.63
2022-11-02T10:23:58.311Z,97568.69
2022-11-02T10:26:02.626Z,97572.81
2022-11-02T10:28:17.107Z,97568.22
2022-11-02T10:30:21.498Z,97569.59
2022-11-02T10:32:24.291Z,97570.03
2022-11-02T10:34:29.020Z,97568.31
2022-11-02T10:37:09.938Z,97570.22
2022-11-02T10:39:23.547Z,97571.91
2022-11-02T10:41:59.232Z,97567.63
2022-11-02T10:44:39.474Z,97585.75
2022-11-02T10:47:01.808Z,97584.34
2022-11-02T10:49:28.961Z,97591.94
2022-11-02T10:51:31.829Z,97588.72
2022-11-02T10:53:42.713Z,97573.94
2022-11-02T10:56:04.511Z,97583.63
2022-11-02T10:58:13.300Z,97584.94
2022-11-02T11:00:32.875Z,97590.13
2022-11-02T11:02:35.590Z,97588.56
2022-11-02T11:04:38.189Z,97597.94
2022-11-02T11:06:42.962Z,97578.44
2022-11-02T11:08:50.101Z,97595.25
2022-11-02T11:10:52.851Z,97601.72
2022-11-02T11:12:56.414Z,97597.56
2022-11-02T11:20:02.728Z,97595.53
2022-11-02T11:22:45.511Z,97603.34
2022-11-02T11:24:48.190Z,97615.06
2022-11-02T11:27:13.124Z,97609.34
2022-11-02T11:29:23.331Z,97615.56
2022-11-02T11:31:26.381Z,97615.25
2022-11-02T11:33:30.550Z,97612.25
2022-11-02T11:35:34.194Z,97611.75
2022-11-02T11:37:37.533Z,97618.94
2022-11-02T11:39:42.952Z,97627.06
2022-11-02T11:41:45.680Z,97628.75
2022-11-02T11:43:50.487Z,97624.63
2022-11-02T11:46:06.867Z,97631.94
2022-11-02T11:48:28.339Z,97623.56
2022-11-02T11:50:31.172Z,97637.56
2022-11-02T11:52:34.684Z,97636.56
2022-11-02T11:54:38.854Z,97636.84
2022-11-02T11:56:41.547Z,97638.13
2022-11-02T11:58:51.458Z,97645.66
2022-11-02T12:01:12.335Z,97647.53
2022-11-02T12:03:16.476Z,97645.16
2022-11-02T12:05:21.084Z,97648.38
2022-11-02T12:07:57.437Z,97641.84
2022-11-02T12:10:08.923Z,97654.56
2022-11-02T12:12:21.317Z,97662.16
2022-11-02T12:14:38.155Z,97655.25
2022-11-02T12:16:46.299Z,97657.16
2022-11-02T12:19:10.459Z,97660.66
2022-11-02T12:21:35.889Z,97657.75
2022-11-02T12:24:07.667Z,97671.56
2022-11-02T12:26:37.801Z,97674.78
2022-11-02T12:29:08.415Z,97663.84
2022-11-02T12:31:36.856Z,97657.44
2022-11-02T12:34:11.550Z,97661.03
2022-11-02T12:36:35.174Z,97667.16
2022-11-02T12:38:49.828Z,97677.25
2022-11-02T12:41:08.846Z,97674.25
2022-11-02T12:43:20.076Z,97677.47
2022-11-02T12:45:37.637Z,97676.16
2022-11-02T12:47:58.374Z,97687.25
2022-11-02T12:50:08.831Z,97679.38
2022-11-02T12:52:29.535Z,97685.84
2022-11-02T12:54:41.897Z,97683.16
2022-11-02T12:56:49.449Z,97687.47
2022-11-02T12:58:52.382Z,97695.59
2022-11-02T13:01:13.289Z,97693.97
2022-11-02T13:03:21.942Z,97692.88
2022-11-02T13:05:33.037Z,97696.16
2022-11-02T13:07:42.957Z,97695.59
2022-11-02T13:10:15.034Z,97698.78
2022-11-02T13:12:21.928Z,97695.19
2022-11-02T13:14:27.754Z,97695.19
2022-11-02T13:17:01.692Z,97708.34
2022-11-02T13:19:05.544Z,97711.38
2022-11-02T13:21:08.490Z,97715.94
2022-11-02T13:23:20.172Z,97718.66
2022-11-02T13:25:30.516Z,97713.75
2022-11-02T13:27:42.290Z,97712.97
2022-11-02T13:29:49.007Z,97727.59
2022-11-02T13:32:02.372Z,97723.78
2022-11-02T13:34:14.528Z,97735.69
2022-11-02T13:36:17.364Z,97728.88
2022-11-02T13:38:27.247Z,97728.38
2022-11-02T13:41:05.580Z,97732.38
2022-11-02T13:43:26.055Z,97735.38
2022-11-02T13:45:38.452Z,97737.69
2022-11-02T13:48:15.587Z,97734.78
2022-11-02T13:50:21.966Z,97747.41
2022-11-02T13:52:41.683Z,97742.56
2022-11-02T13:55:01.074Z,97748.31
2022-11-02T13:57:04.227Z,97743.09
2022-11-02T13:59:21.974Z,97744.19
2022-11-02T14:01:26.023Z,97747.41
2022-11-02T14:03:47.962Z,97749.22
2022-11-02T14:05:59.574Z,97760.91
2022-11-02T14:08:05.693Z,97755.00
2022-11-02T14:10:19.186Z,97754.41
2022-11-02T14:12:21.734Z,97762.50
2022-11-02T14:14:25.697Z,97761.41
2022-11-02T14:16:47.624Z,97759.81
2022-11-02T14:19:18.042Z,97763.19
2022-11-02T14:21:42.327Z,97763.53
2022-11-02T14:23:44.978Z,97772.41
2022-11-02T14:25:49.973Z,97777.81
2022-11-02T14:27:55.035Z,97775.13
2022-11-02T14:29:58.409Z,97781.81
2022-11-02T14:32:09.376Z,97778.03
2022-11-02T14:34:25.369Z,97786.63
2022-11-02T14:36:54.017Z,97792.63
2022-11-02T14:38:59.278Z,97801.25
2022-11-02T14:41:19.967Z,97800.97
2022-11-02T14:43:47.198Z,97788.03
2022-11-02T14:46:10.631Z,97797.44
2022-11-02T14:48:17.187Z,97801.16
2022-11-02T14:50:21.385Z,97802.25
2022-11-02T14:52:30.337Z,97804.66
2022-11-02T14:54:39.948Z,97803.34
2022-11-02T14:57:07.926Z,97806.19
2022-11-02T14:59:36.653Z,97803.56
2022-11-02T15:01:54.293Z,97805.66
2022-11-02T15:03:56.934Z,97805.38
2022-11-02T15:06:17.769Z,97814.28
2022-11-02T15:08:27.447Z,97810.19
2022-11-02T15:10:33.143Z,97816.28
2022-11-02T15:12:39.830Z,97816.88
2022-11-02T15:14:42.841Z,97817.91
2022-11-02T15:16:45.692Z,97825.22
2022-11-02T15:18:48.473Z,97826.00
2022-11-02T15:21:13.153Z,97822.28
2022-11-02T15:23:31.168Z,97829.31
2022-11-02T15:25:46.577Z,97828.72
2022-11-02T15:27:52.553Z,97820.09
2022-11-02T15:29:55.287Z,97827.31
2022-11-02T15:31:59.190Z,97831.41
2022-11-02T15:34:12.422Z,97839.72
2022-11-02T15:36:22.195Z,97837.53
2022-11-02T15:38:33.943Z,97835.84
2022-11-02T15:40:58.117Z,97843.94
2022-11-02T15:43:24.040Z,97854.75
2022-11-02T15:45:59.318Z,97851.44
2022-11-02T15:48:23.137Z,97853.06
2022-11-02T15:50:31.699Z,97855.44
2022-11-02T15:53:08.750Z,97849.34
2022-11-02T15:55:21.675Z,97850.56
2022-11-02T15:57:38.804Z,97855.16
2022-11-02T16:00:04.265Z,97847.28
2022-11-02T16:02:06.958Z,97854.88
2022-11-02T16:04:19.817Z,97850.38
2022-11-02T16:06:28.474Z,97862.38
2022-11-02T16:08:38.117Z,97854.78
2022-11-02T16:10:40.714Z,97858.28
2022-11-02T16:12:43.362Z,97871.50
2022-11-02T16:14:53.849Z,97870.41
2022-11-02T16:16:56.451Z,97874.78
2022-11-02T16:18:59.052Z,97879.72
2022-11-02T16:21:04.217Z,97876.69
2022-11-02T16:23:13.118Z,97879.22
2022-11-02T16:25:35.126Z,97880.91
2022-11-02T16:27:41.430Z,97885.72
2022-11-02T16:29:44.229Z,97885.31
2022-11-02T16:31:47.015Z,97881.53
2022-11-02T16:33:53.747Z,97885.03
2022-11-02T16:35:56.575Z,97883.41
2022-11-02T16:37:59.333Z,97881.22
2022-11-02T16:40:02.453Z,97894.16
2022-11-02T16:42:15.483Z,97891.34
2022-11-02T16:44:28.692Z,97891.03
2022-11-02T16:46:42.060Z,97902.69
2022-11-02T16:49:15.476Z,97895.66
2022-11-02T16:51:19.231Z,97901.56
2022-11-02T16:53:29.379Z,97898.75
2022-11-02T16:55:39.513Z,97908.38
2022-11-02T16:57:46.293Z,97909.69
2022-11-02T17:00:05.438Z,97913.50
2022-11-02T17:02:12.806Z,97916.50
2022-11-02T17:04:20.410Z,97908.28
2022-11-02T17:06:23.222Z,97921.78
2022-11-02T17:08:36.529Z,97927.72
2022-11-02T17:10:39.886Z,97929.81
2022-11-02T17:12:45.531Z,97934.44
2022-11-02T17:14:50.446Z,97946.66
2022-11-02T17:17:00.656Z,97941.44
2022-11-02T17:19:04.218Z,97941.66
2022-11-02T17:21:12.896Z,97946.78
2022-11-02T17:23:34.976Z,97942.66
2022-11-02T17:25:39.979Z,97941.88
2022-11-02T17:27:42.920Z,97940.25
2022-11-02T17:29:45.603Z,97934.56
2022-11-02T17:31:56.580Z,97938.66
2022-11-02T17:34:02.780Z,97945.94
2022-11-02T17:36:07.996Z,97945.75
2022-11-02T17:38:10.781Z,97949.75
2022-11-02T17:40:13.846Z,97952.75
2022-11-02T17:42:36.322Z,97959.00
2022-11-02T17:44:39.163Z,97956.28
2022-11-02T17:46:44.777Z,97955.97
2022-11-02T17:48:48.836Z,97954.16
2022-11-02T17:50:56.748Z,97963.16
2022-11-02T17:53:01.013Z,97965.56
2022-11-02T17:55:03.859Z,97967.50
2022-11-02T17:57:13.119Z,97962.59
2022-11-02T17:59:15.793Z,97976.81
2022-11-02T18:01:18.820Z,97971.41
2022-11-02T18:03:25.448Z,97974.72
2022-11-02T18:05:35.554Z,97990.63
2022-11-02T18:07:38.136Z,97984.41
2022-11-02T18:09:40.895Z,97989.81
2022-11-02T18:11:43.471Z,97986.84
2022-11-02T18:13:46.139Z,97989.41
2022-11-02T18:15:49.516Z,97984.13
2022-11-02T18:17:52.397Z,97980.13
2022-11-02T18:19:55.379Z,97982.59
2022-11-02T18:21:58.106Z,97993.31
2022-11-02T18:24:00.700Z,97998.75
2022-11-02T18:26:03.500Z,97991.50
2022-11-02T18:28:06.646Z,97993.03
2022-11-02T18:30:14.426Z,97995.97
2022-11-02T18:32:17.276Z,97989.72
2022-11-02T18:34:19.906Z,97989.63
2022-11-02T18:36:22.914Z,97993.47
2022-11-02T18:38:25.581Z,97992.66
2022-11-02T18:40:34.209Z,97988.94
2022-11-02T18:42:39.148Z,97983.25
2022-11-02T18:44:41.853Z,97984.13
2022-11-02T18:46:44.423Z,97986.22
2022-11-02T18:48:47.570Z,97988.53
2022-11-02T18:50:50.201Z,97983.72
2022-11-02T18:52:52.876Z,97983.41
2022-11-02T18:54:56.249Z,97989.03
2022-11-02T18:56:59.021Z,97988.75
2022-11-02T18:59:01.715Z,97995.53
2022-11-02T19:01:13.349Z,97994.63
2022-11-02T19:03:18.338Z,98006.47
2022-11-02T19:05:39.719Z,98002.97
2022-11-02T19:08:00.725Z,98002.38
2022-11-02T19:10:04.357Z,98005.97
2022-11-02T19:12:11.639Z,98002.38
2022-11-02T19:14:14.276Z,98003.47
2022-11-02T19:16:16.984Z,97991.34
2022-11-02T19:18:19.591Z,97994.44
2022-11-02T19:20:22.202Z,97994.72
2022-11-02T19:22:26.577Z,97998.53
2022-11-02T19:24:29.611Z,98003.53
2022-11-02T19:26:32.996Z,98007.63
2022-11-02T19:28:35.785Z,98006.00
2022-11-02T19:30:38.700Z,98008.28
2022-11-02T19:32:41.291Z,98007.50
2022-11-02T19:34:44.047Z,98006.09
2022-11-02T19:36:46.648Z,98007.41
2022-11-02T19:38:49.228Z,98015.16
2022-11-02T19:41:17.751Z,98013.25
2022-11-02T19:43:20.342Z,98021.25
2022-11-02T19:45:22.937Z,98025.75
2022-11-02T19:47:26.795Z,98024.84
2022-11-02T19:49:29.504Z,98029.88
2022-11-02T19:51:32.364Z,98035.09
2022-11-02T19:53:35.585Z,98036.19
2022-11-02T19:55:38.128Z,98033.84
2022-11-02T19:57:40.816Z,98020.41
2022-11-02T19:59:43.384Z,98028.59
2022-11-02T20:01:48.443Z,98031.81
2022-11-02T20:03:52.493Z,98035.63
2022-11-02T20:05:59.973Z,98036.56
2022-11-02T20:08:02.836Z,98033.50
2022-11-02T20:10:05.990Z,98032.44
2022-11-02T20:12:08.616Z,98028.09
2022-11-02T20:14:13.034Z,98032.44
2022-11-02T20:16:18.681Z,98033.50
2022-11-02T20:18:21.549Z,98029.50
2022-11-02T20:20:24.686Z,98020.50
2022-11-02T20:22:27.271Z,98028.84
2022-11-02T20:24:29.881Z,98023.94
2022-11-02T20:26:36.183Z,98033.56
2022-11-02T20:28:40.658Z,98031.66
2022-11-02T20:30:43.804Z,98034.16
2022-11-02T20:32:46.487Z,98027.44
2022-11-02T20:34:49.062Z,98032.34
2022-11-02T20:36:51.743Z,98026.34
2022-11-02T20:38:55.032Z,98033.38
2022-11-02T20:41:15.247Z,98025.03
2022-11-02T20:43:20.184Z,98023.84
2022-11-02T20:45:24.793Z,98026.06
2022-11-02T20:47:28.393Z,98025.75
2022-11-02T20:51:54.348Z,98021.44
2022-11-02T20:53:57.567Z,98020.22
2022-11-02T20:56:01.081Z,98021.53
2022-11-02T20:58:04.119Z,98022.78
2022-11-02T21:00:07.384Z,98007.34
2022-11-02T21:02:11.855Z,97995.13
2022-11-02T21:04:20.203Z,98009.78
2022-11-02T21:06:23.714Z,98019.72
2022-11-02T21:08:26.325Z,98012.38
2022-11-02T21:10:29.309Z,98020.72
2022-11-02T21:12:50.671Z,98011.00
2022-11-02T21:14:53.467Z,98024.75
2022-11-02T21:16:56.170Z,98025.81
2022-11-02T21:18:58.935Z,98020.13
2022-11-02T21:21:25.830Z,98032.63
2022-11-02T21:23:28.394Z,98019.84
2022-11-02T21:25:33.261Z,98027.88
2022-11-02T21:27:35.886Z,98022.66
2022-11-02T21:29:38.835Z,98017.75
2022-11-02T21:31:41.620Z,98018.28
2022-11-02T21:33:45.881Z,98023.78
2022-11-02T21:35:48.570Z,98028.91
2022-11-02T21:37:55.895Z,98019.75
2022-11-02T21:39:58.470Z,98020.78
2022-11-02T21:42:01.599Z,98022.66
2022-11-02T21:44:07.248Z,98018.97
2022-11-02T21:46:09.893Z,98031.38
2022-11-02T21:48:12.586Z,98026.75
2022-11-02T21:50:15.150Z,98021.66
2022-11-02T21:52:17.866Z,98023.63
2022-11-02T21:54:20.632Z,98020.56
2022-11-02T21:56:30.823Z,98019.53
2022-11-02T21:58:34.135Z,98020.03
2022-11-02T22:00:55.729Z,98006.09
2022-11-02T22:02:58.707Z,98007.13
2022-11-02T22:05:01.328Z,98012.00
2022-11-02T22:07:05.281Z,98011.13
2022-11-02T22:09:10.677Z,98010.09
2022-11-02T22:11:15.962Z,98002.59
2022-11-02T22:13:33.534Z,98015.31
2022-11-02T22:15:38.414Z,98011.00
2022-11-02T22:17:49.724Z,98000.97
2022-11-02T22:19:52.762Z,98000.19
2022-11-02T22:21:55.390Z,97995.09
2022-11-02T22:23:59.096Z,97992.66
2022-11-02T22:26:05.386Z,97992.38
2022-11-02T22:28:08.031Z,97995.56
2022-11-02T22:30:11.347Z,98004.28
2022-11-02T22:32:14.770Z,98004.19
2022-11-02T22:34:17.554Z,97997.19
2022-11-02T22:36:22.481Z,98008.38
2022-11-02T22:38:43.624Z,98000.97
2022-11-02T22:40:48.260Z,98008.38
2022-11-02T22:42:54.629Z,98016.50
2022-11-02T22:44:58.701Z,98008.88
2022-11-02T22:47:01.312Z,98016.41
2022-11-02T22:49:04.976Z,98011.78
2022-11-02T22:51:08.653Z,98016.13
2022-11-02T22:53:11.847Z,98014.22
2022-11-02T22:55:14.542Z,98002.59
2022-11-02T22:57:17.125Z,98007.72
2022-11-02T22:59:21.100Z,98000.97
2022-11-02T23:01:26.398Z,98001.19
2022-11-02T23:03:33.889Z,98013.13
2022-11-02T23:05:38.150Z,98019.41
2022-11-02T23:07:40.759Z,98013.69
2022-11-02T23:09:43.339Z,98005.31
2022-11-02T23:11:46.012Z,98013.94
2022-11-02T23:14:06.998Z,98012.91
2022-11-02T23:16:22.758Z,98007.22
2022-11-02T23:18:45.346Z,98006.91
2022-11-02T23:20:51.995Z,98002.50
2022-11-02T23:23:17.356Z,97999.59
2022-11-02T23:25:20.267Z,98001.41
2022-11-02T23:27:23.175Z,98009.22
2022-11-02T23:29:44.145Z,98006.53
2022-11-02T23:32:05.042Z,98007.03
2022-11-02T23:34:07.659Z,98001.03
2022-11-02T23:36:13.997Z,97997.09
2022-11-02T23:38:16.911Z,98002.22
2022-11-02T23:40:19.760Z,98006.81
2022-11-02T23:42:23.765Z,97998.22
2022-11-02T23:44:29.414Z,98000.19
2022-11-02T23:46:32.019Z,98002.31
2022-11-02T23:48:34.607Z,98002.97
2022-11-02T23:50:55.830Z,98003.75
2022-11-02T23:53:16.786Z,98009.78
2022-11-02T23:55:37.653Z,97997.56
2022-11-02T23:57:40.635Z,98000.78
2022-11-02T23:59:43.268Z,97997.56
